.
WxDataArchive / Data Records for 2015-12-05
2015-12-04 December 2015 2015-12-06

Data Records for Saturday, 05 December 2015

Time	Temp	Chill	HIndex	Humid	Dewpt	 Wind 	HiWind	WindDir	Rain 	Barom
-----	----	-----	------	-----	-----	------	------	-------	-----	-----
00:00	33.8	33.8	33.8	91	31.5	0	2	248	0.00	30.622 
00:05	33.8	33.8	33.8	91	31.5	0	3	248	0.00	30.622 
00:10	33.8	33.8	33.8	91	31.5	0	3	248	0.00	30.622 
00:15	33.7	33.7	33.7	91	31.4	0	3	248	0.00	30.621 
00:20	33.7	33.7	33.7	91	31.4	0	2	248	0.00	30.621 
00:25	33.7	33.7	33.7	91	31.4	0	2	248	0.00	30.621 
00:30	33.7	33.7	33.7	91	31.4	0	2	248	0.00	30.619 
00:35	33.7	33.7	33.7	91	31.4	0	2	248	0.00	30.619 
00:40	33.7	33.7	33.7	91	31.4	0	2	248	0.00	30.619 
00:45	33.7	33.7	33.7	91	31.4	0	1	248	0.00	30.618 
00:50	33.5	33.5	33.5	91	31.2	0	1	248	0.00	30.618 
00:55	33.5	33.5	33.5	91	31.2	0	1	248	0.00	30.618 
01:00	33.4	33.4	33.4	91	31.1	0	2	248	0.00	30.620 
01:05	33.2	33.2	33.2	91	30.9	0	0	---	0.00	30.620 
01:10	33.1	33.1	33.1	91	30.8	0	1	248	0.00	30.620 
01:15	32.9	32.9	32.9	91	30.6	0	1	248	0.00	30.620 
01:20	32.8	32.8	32.8	91	30.5	0	1	248	0.00	30.620 
01:25	32.7	32.7	32.7	92	30.6	0	1	248	0.00	30.620 
01:30	32.8	32.8	32.8	92	30.7	0	1	248	0.00	30.619 
01:35	32.8	32.8	32.8	92	30.7	0	0	---	0.00	30.619 
01:40	32.7	32.7	32.7	92	30.6	0	1	248	0.00	30.619 
01:45	32.7	32.7	32.7	92	30.6	0	0	---	0.00	30.621 
01:50	32.7	32.7	32.7	92	30.6	0	1	248	0.00	30.621 
01:55	32.7	32.7	32.7	92	30.6	0	0	---	0.00	30.621 
02:00	32.7	32.7	32.7	92	30.6	0	1	248	0.00	30.614 
02:05	32.7	32.7	32.7	92	30.6	0	0	---	0.00	30.614 
02:10	32.7	32.7	32.7	92	30.6	0	0	---	0.00	30.614 
02:15	32.7	32.7	32.7	92	30.6	0	1	248	0.00	30.616 
02:20	32.7	32.7	32.7	92	30.6	0	0	---	0.00	30.616 
02:25	32.5	32.5	32.5	92	30.4	0	1	248	0.00	30.616 
02:30	32.4	32.4	32.4	92	30.3	0	0	---	0.00	30.621 
02:35	32.4	32.4	32.4	92	30.3	0	0	---	0.00	30.621 
02:40	32.4	32.4	32.4	92	30.3	0	1	248	0.00	30.621 
02:45	32.4	32.4	32.4	92	30.3	0	0	---	0.00	30.628 
02:50	32.4	32.4	32.4	92	30.3	0	1	248	0.00	30.628 
02:55	32.4	32.4	32.4	92	30.3	0	1	248	0.00	30.628 
03:00	32.2	32.2	32.2	92	30.1	0	0	---	0.00	30.632 
03:05	32.2	32.2	32.2	92	30.1	0	1	248	0.00	30.632 
03:10	32.2	32.2	32.2	92	30.1	0	0	---	0.00	30.632 
03:15	32.2	32.2	32.2	93	30.4	0	0	---	0.00	30.636 
03:20	32.2	32.2	32.2	93	30.4	0	0	---	0.00	30.636 
03:25	32.2	32.2	32.2	93	30.4	0	0	---	0.00	30.636 
03:30	32.2	32.2	32.2	93	30.4	0	0	---	0.00	30.640 
03:35	32.2	32.2	32.2	93	30.4	0	0	---	0.00	30.640 
03:40	32.2	32.2	32.2	93	30.4	0	0	---	0.00	30.640 
03:45	32.2	32.2	32.2	93	30.4	0	0	---	0.00	30.641 
03:50	32.2	32.2	32.2	93	30.4	0	0	---	0.00	30.641 
03:55	32.2	32.2	32.2	93	30.4	0	1	248	0.00	30.641 
04:00	32.2	32.2	32.2	93	30.4	0	1	248	0.00	30.641 
04:05	32.2	32.2	32.2	93	30.4	0	0	---	0.00	30.641 
04:10	32.1	32.1	32.1	93	30.3	0	0	---	0.00	30.641 
04:15	31.9	31.9	31.9	93	30.1	0	0	---	0.00	30.643 
04:20	31.9	31.9	31.9	93	30.1	0	0	---	0.00	30.643 
04:25	31.9	31.9	31.9	93	30.1	0	1	248	0.00	30.643 
04:30	31.8	31.8	31.8	93	30.0	0	0	---	0.00	30.645 
04:35	31.6	31.6	31.6	93	29.8	0	0	---	0.00	30.645 
04:40	31.3	31.3	31.3	93	29.5	0	1	248	0.00	30.645 
04:45	31.2	31.2	31.2	93	29.4	0	1	248	0.00	30.648 
04:50	31.0	31.0	31.0	93	29.2	0	0	---	0.00	30.648 
04:55	30.9	30.9	30.9	93	29.1	0	1	248	0.00	30.648 
05:00	30.7	30.7	30.7	93	28.9	0	0	---	0.00	30.651 
05:05	30.7	30.7	30.7	93	28.9	0	0	---	0.00	30.651 
05:10	30.7	30.7	30.7	93	28.9	0	0	---	0.00	30.651 
05:15	30.7	30.7	30.7	93	28.9	0	0	---	0.00	30.656 
05:20	30.9	30.9	30.9	93	29.1	0	0	---	0.00	30.656 
05:25	31.0	31.0	31.0	94	29.5	0	1	248	0.00	30.656 
05:30	31.0	31.0	31.0	94	29.5	0	0	---	0.00	30.658 
05:35	31.0	31.0	31.0	94	29.5	0	1	248	0.00	30.658 
05:40	31.2	31.2	31.2	94	29.7	0	2	248	0.00	30.658 
05:45	31.2	31.2	31.2	94	29.7	0	2	248	0.00	30.664 
05:50	31.2	31.2	31.2	94	29.7	0	0	---	0.00	30.664 
05:55	31.0	31.0	31.0	94	29.5	0	1	248	0.00	30.664 
06:00	30.9	30.9	30.9	94	29.4	0	2	248	0.00	30.667 
06:05	30.7	30.7	30.7	94	29.2	0	0	---	0.00	30.667 
06:10	30.7	30.7	30.7	94	29.2	0	0	---	0.00	30.667 
06:15	30.7	30.7	30.7	94	29.2	0	1	248	0.00	30.669 
06:20	30.7	30.7	30.7	94	29.2	0	0	---	0.00	30.669 
06:25	30.7	30.7	30.7	94	29.2	0	1	248	0.00	30.669 
06:30	30.7	30.7	30.7	94	29.2	0	1	248	0.00	30.676 
06:35	30.6	30.6	30.6	94	29.1	0	0	---	0.00	30.676 
06:40	30.6	30.6	30.6	94	29.1	0	1	248	0.00	30.676 
06:45	30.3	30.3	30.3	94	28.8	0	0	---	0.00	30.683 
06:50	30.1	30.1	30.1	94	28.6	0	1	248	0.00	30.683 
06:55	30.1	30.1	30.1	94	28.6	0	1	248	0.00	30.683 
07:00	30.1	30.1	30.1	94	28.6	0	1	248	0.00	30.683 
07:05	30.3	30.3	30.3	94	28.8	0	0	---	0.00	30.683 
07:10	30.1	30.1	30.1	94	28.6	0	1	248	0.00	30.683 
07:15	30.0	30.0	30.0	94	28.5	0	1	248	0.00	30.684 
07:20	29.8	29.8	29.8	94	28.3	0	0	---	0.00	30.684 
07:25	29.8	29.8	29.8	94	28.3	0	0	---	0.00	30.684 
07:30	29.7	29.7	29.7	94	28.2	0	0	---	0.00	30.684 
07:35	29.7	29.7	29.7	94	28.2	0	0	---	0.00	30.684 
07:40	29.8	29.8	29.8	94	28.3	0	0	---	0.00	30.684 
07:45	29.7	29.7	29.7	94	28.2	0	0	---	0.00	30.682 
07:50	29.5	29.5	29.5	94	28.0	0	0	---	0.00	30.682 
07:55	29.4	29.4	29.4	94	27.9	0	0	---	0.00	30.682 
08:00	29.3	29.3	29.3	94	27.8	0	0	---	0.00	30.684 
08:05	29.3	29.3	29.3	94	27.8	0	1	248	0.00	30.684 
08:10	29.3	29.3	29.3	94	27.8	0	1	248	0.00	30.684 
08:15	29.3	29.3	29.3	94	27.8	0	1	248	0.00	30.680 
08:20	29.4	29.4	29.4	94	27.9	0	1	248	0.00	30.680 
08:25	29.4	29.4	29.4	94	27.9	0	0	---	0.00	30.680 
08:30	29.3	29.3	29.3	94	27.8	0	0	---	0.00	30.679 
08:35	29.3	29.3	29.3	94	27.8	0	1	248	0.00	30.679 
08:40	29.3	29.3	29.3	94	27.8	0	1	248	0.00	30.679 
08:45	29.4	29.4	29.4	94	27.9	0	2	248	0.00	30.683 
08:50	29.3	29.3	29.3	94	27.8	0	1	248	0.00	30.683 
08:55	29.1	29.1	29.1	94	27.6	0	2	248	0.00	30.683 
09:00	29.0	29.0	29.0	94	27.5	0	2	248	0.00	30.681 
09:05	28.8	28.8	28.8	94	27.3	0	1	248	0.00	30.681 
09:10	28.8	28.8	28.8	94	27.3	0	1	248	0.00	30.681 
09:15	28.7	28.7	28.7	94	27.2	0	2	248	0.00	30.677 
09:20	28.8	28.8	28.8	95	27.6	0	0	---	0.00	30.677 
09:25	29.0	29.0	29.0	95	27.8	0	1	248	0.00	30.677 
09:30	29.3	29.3	29.3	95	28.0	0	1	248	0.00	30.682 
09:35	29.3	29.3	29.3	95	28.0	0	2	248	0.00	30.682 
09:40	29.3	29.3	29.3	95	28.0	0	0	---	0.00	30.682 
09:45	29.4	29.4	29.4	95	28.1	0	0	---	0.00	30.684 
09:50	29.5	29.5	29.5	95	28.2	0	0	---	0.00	30.684 
09:55	29.7	29.7	29.7	95	28.4	0	2	248	0.00	30.684 
10:00	29.5	29.5	29.5	95	28.2	0	3	248	0.00	30.680 
10:05	29.5	29.5	29.5	95	28.2	0	2	248	0.00	30.680 
10:10	29.7	29.7	29.7	95	28.4	0	2	248	0.00	30.680 
10:15	29.7	29.7	29.7	95	28.4	1	3	202	0.00	30.677 
10:20	29.7	29.7	29.7	95	28.4	0	3	90	0.00	30.677 
10:25	29.8	29.8	29.8	95	28.5	0	2	90	0.00	30.677 
10:30	30.0	30.0	30.0	95	28.7	0	3	90	0.00	30.676 
10:35	30.1	30.1	30.1	95	28.8	0	3	90	0.00	30.676 
10:40	30.1	30.1	30.1	95	28.8	0	2	90	0.00	30.676 
10:45	30.0	30.0	30.0	95	28.7	0	3	90	0.00	30.673 
10:50	30.1	30.1	30.1	95	28.8	0	1	90	0.00	30.673 
10:55	30.0	30.0	30.0	95	28.7	0	1	90	0.00	30.673 
11:00	30.1	30.1	30.1	95	28.8	0	1	90	0.00	30.681 
11:05	30.3	30.3	30.3	95	29.0	0	0	---	0.00	30.681 
11:10	30.3	30.3	30.3	95	29.0	0	0	---	0.00	30.681 
11:15	30.6	30.6	30.6	95	29.3	0	1	90	0.00	30.674 
11:20	30.9	30.9	30.9	95	29.6	0	2	90	0.00	30.674 
11:25	31.0	31.0	31.0	95	29.7	0	2	90	0.00	30.674 
11:30	31.2	31.2	31.2	95	29.9	0	1	90	0.00	30.670 
11:35	31.2	31.2	31.2	95	29.9	0	2	90	0.00	30.670 
11:40	31.2	31.2	31.2	95	29.9	0	1	90	0.00	30.670 
11:45	31.5	31.5	31.5	95	30.2	0	2	90	0.00	30.665 
11:50	31.8	31.8	31.8	95	30.5	1	3	90	0.00	30.665 
11:55	31.8	31.8	31.8	95	30.5	1	3	90	0.00	30.665 
12:00	32.1	32.1	32.1	95	30.8	0	1	90	0.00	30.657 
12:05	32.5	32.5	32.5	95	31.2	0	3	90	0.00	30.657 
12:10	32.7	32.7	32.7	94	31.2	0	2	90	0.00	30.657 
12:15	32.9	32.9	32.9	94	31.4	1	3	90	0.00	30.656 
12:20	33.1	33.1	33.1	94	31.6	0	1	90	0.00	30.656 
12:25	33.2	33.2	33.2	93	31.4	0	2	90	0.00	30.656 
12:30	33.4	33.4	33.4	93	31.6	0	1	90	0.00	30.652 
12:35	33.2	33.2	33.2	92	31.1	0	2	90	0.00	30.652 
12:40	33.4	33.4	33.4	92	31.3	1	3	90	0.00	30.652 
12:45	33.5	33.5	33.5	92	31.4	1	3	90	0.00	30.645 
12:50	33.8	33.8	33.8	91	31.5	0	2	90	0.00	30.645 
12:55	34.3	34.3	34.3	91	32.0	0	1	90	0.00	30.645 
13:00	34.6	34.6	34.6	90	32.0	0	1	90	0.00	30.636 
13:05	34.7	34.7	34.7	89	31.8	0	2	90	0.00	30.636 
13:10	35.0	35.0	35.0	88	31.8	0	2	90	0.00	30.636 
13:15	35.5	35.5	35.5	88	32.3	1	3	90	0.00	30.628 
13:20	35.8	35.8	35.8	87	32.3	0	2	90	0.00	30.628 
13:25	36.0	36.0	36.0	86	32.2	0	1	90	0.00	30.628 
13:30	36.5	36.5	36.5	85	32.4	0	1	90	0.00	30.624 
13:35	36.8	36.8	36.8	83	32.1	0	2	90	0.00	30.624 
13:40	37.0	37.0	37.0	82	32.0	0	2	90	0.00	30.624 
13:45	37.2	37.2	37.2	83	32.5	0	2	90	0.00	30.616 
13:50	37.5	37.5	37.5	82	32.5	0	3	90	0.00	30.616 
13:55	37.8	37.8	37.8	81	32.5	0	2	90	0.00	30.616 
14:00	38.0	38.0	38.0	80	32.4	1	4	90	0.00	30.612 
14:05	38.2	38.2	38.2	80	32.6	1	3	90	0.00	30.612 
14:10	38.5	38.5	38.5	79	32.6	1	4	90	0.00	30.612 
14:15	38.8	38.8	38.8	77	32.2	1	3	90	0.00	30.602 
14:20	39.2	39.2	39.2	77	32.6	1	4	90	0.00	30.602 
14:25	39.3	39.3	39.3	77	32.7	1	3	90	0.00	30.602 
14:30	39.6	39.6	39.6	76	32.7	1	2	90	0.00	30.598 
14:35	39.8	39.8	39.8	76	32.9	1	3	90	0.00	30.598 
14:40	40.1	40.1	40.1	74	32.5	0	2	90	0.00	30.598 
14:45	40.2	40.2	40.2	73	32.2	0	2	90	0.00	30.598 
14:50	40.3	40.3	40.3	72	32.0	1	3	90	0.00	30.598 
14:55	40.5	40.5	40.5	73	32.5	0	1	90	0.00	30.598 
15:00	40.6	40.6	40.6	73	32.6	0	1	90	0.00	30.597 
15:05	40.8	40.8	40.8	73	32.8	1	4	90	0.00	30.597 
15:10	41.1	41.1	41.1	73	33.1	1	4	90	0.00	30.597 
15:15	41.2	41.2	41.2	73	33.2	0	3	90	0.00	30.586 
15:20	41.3	41.3	41.3	72	33.0	1	3	90	0.00	30.586 
15:25	41.5	41.5	41.5	72	33.2	0	3	90	0.00	30.586 
15:30	41.6	41.6	41.6	71	32.9	0	3	90	0.00	30.580 
15:35	41.6	41.6	41.6	70	32.6	2	4	90	0.00	30.580 
15:40	41.8	41.8	41.8	70	32.7	1	3	90	0.00	30.580 
15:45	41.9	41.9	41.9	71	33.2	0	2	90	0.00	30.581 
15:50	41.9	41.9	41.9	70	32.8	0	2	90	0.00	30.581 
15:55	42.1	42.1	42.1	70	33.0	0	2	90	0.00	30.581 
16:00	42.1	42.1	42.1	70	33.0	0	2	90	0.00	30.576 
16:05	42.1	42.1	42.1	69	32.7	1	4	90	0.00	30.576 
16:10	42.2	42.2	42.2	69	32.8	1	4	90	0.00	30.576 
16:15	42.2	42.2	42.2	70	33.1	1	3	90	0.00	30.583 
16:20	42.2	42.2	42.2	70	33.1	1	3	90	0.00	30.583 
16:25	42.2	42.2	42.2	71	33.5	0	1	90	0.00	30.583 
16:30	42.1	42.1	42.1	71	33.4	0	1	90	0.00	30.587 
16:35	41.9	41.9	41.9	71	33.2	0	1	90	0.00	30.587 
16:40	41.9	41.9	41.9	72	33.5	0	1	90	0.00	30.587 
16:45	41.8	41.8	41.8	72	33.4	0	0	---	0.00	30.588 
16:50	41.6	41.6	41.6	72	33.3	0	0	---	0.00	30.588 
16:55	41.5	41.5	41.5	73	33.5	0	0	---	0.00	30.588 
17:00	41.2	41.2	41.2	73	33.2	0	0	---	0.00	30.587 
17:05	40.9	40.9	40.9	73	32.9	0	0	---	0.00	30.587 
17:10	40.6	40.6	40.6	73	32.6	0	0	---	0.00	30.587 
17:15	40.2	40.2	40.2	74	32.6	0	0	---	0.00	30.588 
17:20	39.8	39.8	39.8	74	32.2	0	0	---	0.00	30.588 
17:25	39.3	39.3	39.3	75	32.0	0	0	---	0.00	30.588 
17:30	38.9	38.9	38.9	76	32.0	0	0	---	0.00	30.592 
17:35	38.3	38.3	38.3	77	31.7	0	0	---	0.00	30.592 
17:40	37.8	37.8	37.8	77	31.2	0	0	---	0.00	30.592 
17:45	37.3	37.3	37.3	77	30.8	0	0	---	0.00	30.598 
17:50	36.9	36.9	36.9	78	30.7	0	0	---	0.00	30.598 
17:55	36.5	36.5	36.5	78	30.3	0	0	---	0.00	30.598 
18:00	36.2	36.2	36.2	79	30.3	0	0	---	0.00	30.601 
18:05	35.8	35.8	35.8	79	29.9	0	0	---	0.00	30.601 
18:10	35.3	35.3	35.3	80	29.8	0	0	---	0.00	30.601 
18:15	34.9	34.9	34.9	81	29.7	0	0	---	0.00	30.598 
18:20	34.6	34.6	34.6	81	29.4	0	0	---	0.00	30.598 
18:25	34.3	34.3	34.3	82	29.4	0	0	---	0.00	30.598 
18:30	34.0	34.0	34.0	82	29.1	0	0	---	0.00	30.593 
18:35	33.7	33.7	33.7	84	29.4	0	0	---	0.00	30.593 
18:40	33.5	33.5	33.5	85	29.5	0	0	---	0.00	30.593 
18:45	33.2	33.2	33.2	85	29.2	0	0	---	0.00	30.591 
18:50	32.9	32.9	32.9	85	28.9	0	0	---	0.00	30.591 
18:55	32.8	32.8	32.8	85	28.8	0	0	---	0.00	30.591 
19:00	32.5	32.5	32.5	85	28.5	0	0	---	0.00	30.587 
19:05	32.4	32.4	32.4	85	28.4	0	0	---	0.00	30.587 
19:10	32.2	32.2	32.2	87	28.8	0	0	---	0.00	30.587 
19:15	32.4	32.4	32.4	88	29.3	0	0	---	0.00	30.581 
19:20	32.7	32.7	32.7	89	29.8	0	1	90	0.00	30.581 
19:25	33.2	33.2	33.2	89	30.3	0	1	90	0.00	30.581 
19:30	33.5	33.5	33.5	89	30.6	0	0	---	0.00	30.577 
19:35	33.8	33.8	33.8	90	31.2	0	1	90	0.00	30.577 
19:40	34.0	34.0	34.0	89	31.1	0	1	90	0.00	30.577 
19:45	33.8	33.8	33.8	89	30.9	0	0	---	0.00	30.578 
19:50	33.5	33.5	33.5	89	30.6	0	0	---	0.00	30.578 
19:55	33.2	33.2	33.2	89	30.3	0	0	---	0.00	30.578 
20:00	32.9	32.9	32.9	89	30.0	0	0	---	0.00	30.578 
20:05	32.7	32.7	32.7	89	29.8	0	0	---	0.00	30.578 
20:10	32.4	32.4	32.4	89	29.5	0	0	---	0.00	30.578 
20:15	32.1	32.1	32.1	89	29.2	0	0	---	0.00	30.579 
20:20	31.8	31.8	31.8	89	28.9	0	0	---	0.00	30.579 
20:25	31.5	31.5	31.5	89	28.6	0	0	---	0.00	30.579 
20:30	31.2	31.2	31.2	89	28.3	0	0	---	0.00	30.577 
20:35	30.9	30.9	30.9	89	28.0	0	0	---	0.00	30.577 
20:40	30.7	30.7	30.7	89	27.8	0	0	---	0.00	30.577 
20:45	30.6	30.6	30.6	89	27.8	0	0	---	0.00	30.575 
20:50	30.4	30.4	30.4	90	27.8	0	0	---	0.00	30.575 
20:55	30.3	30.3	30.3	90	27.7	0	0	---	0.00	30.575 
21:00	30.1	30.1	30.1	90	27.5	0	0	---	0.00	30.575 
21:05	30.1	30.1	30.1	90	27.5	0	0	---	0.00	30.575 
21:10	30.0	30.0	30.0	90	27.4	0	0	---	0.00	30.575 
21:15	30.0	30.0	30.0	90	27.4	0	0	---	0.00	30.567 
21:20	29.8	29.8	29.8	90	27.2	0	0	---	0.00	30.567 
21:25	29.7	29.7	29.7	90	27.1	0	0	---	0.00	30.567 
21:30	29.7	29.7	29.7	90	27.1	0	0	---	0.00	30.565 
21:35	29.7	29.7	29.7	91	27.4	0	0	---	0.00	30.565 
21:40	30.0	30.0	30.0	91	27.7	0	0	---	0.00	30.565 
21:45	30.1	30.1	30.1	91	27.8	0	0	---	0.00	30.563 
21:50	30.4	30.4	30.4	92	28.4	0	0	---	0.00	30.563 
21:55	30.6	30.6	30.6	91	28.3	0	0	---	0.00	30.563 
22:00	30.4	30.4	30.4	91	28.1	0	0	---	0.00	30.561 
22:05	30.3	30.3	30.3	91	28.0	0	0	---	0.00	30.561 
22:10	30.0	30.0	30.0	91	27.7	0	0	---	0.00	30.561 
22:15	29.8	29.8	29.8	91	27.5	0	0	---	0.00	30.552 
22:20	29.8	29.8	29.8	92	27.8	0	0	---	0.00	30.552 
22:25	29.8	29.8	29.8	92	27.8	0	0	---	0.00	30.552 
22:30	29.8	29.8	29.8	92	27.8	0	0	---	0.00	30.546 
22:35	30.0	30.0	30.0	92	28.0	0	0	---	0.00	30.546 
22:40	30.1	30.1	30.1	92	28.1	0	0	---	0.00	30.546 
22:45	30.0	30.0	30.0	92	28.0	0	0	---	0.00	30.546 
22:50	30.0	30.0	30.0	92	28.0	0	0	---	0.00	30.546 
22:55	29.8	29.8	29.8	92	27.8	0	0	---	0.00	30.546 
23:00	29.5	29.5	29.5	92	27.5	0	0	---	0.00	30.545 
23:05	29.4	29.4	29.4	92	27.4	0	0	---	0.00	30.545 
23:10	29.1	29.1	29.1	92	27.1	0	0	---	0.00	30.545 
23:15	29.0	29.0	29.0	92	27.0	0	0	---	0.00	30.546 
23:20	28.7	28.7	28.7	92	26.7	0	0	---	0.00	30.546 
23:25	28.5	28.5	28.5	92	26.5	0	0	---	0.00	30.546 
23:30	28.4	28.4	28.4	92	26.4	0	0	---	0.00	30.549 
23:35	28.2	28.2	28.2	92	26.2	0	0	---	0.00	30.549 
23:40	27.9	27.9	27.9	92	25.9	0	0	---	0.00	30.549 
23:45	27.8	27.8	27.8	92	25.8	0	0	---	0.00	30.550 
23:50	27.6	27.6	27.6	92	25.6	0	0	---	0.00	30.550 
23:55	27.5	27.5	27.5	92	25.5	0	0	---	0.00	30.550 

CoCoRaHS
IN-AL-39
A2 Web Hosting
Creative Commons License
GoDaddy
search engine by freefind advanced

loaded 2018-12-19 10:21:20 • last modified 2010-11-18 10:43:29
Privacy PolicyDisclaimer
• wx.awcolley.com is powered by PmWiki v.2002016 •
• all content (unless otherwise noted) © 2018 A W Colley